Carlisle, Louisiana
Current Conditions -  °F | °C
As of 2:55 PM on Thursday 23 Oct 2014 (Local Time) from KNBG Reporting Station
Scattered Clouds Scattered Clouds  
Wind Chill: 74°   Ceiling: Unl
Heat Index: 74°   Visibility: 10mi
Dew Point: 44°   Wind: 10mph
Humidity: 34%   Direction: 50°NE
Pressure: 30.04"   Gusts: NA
Location:  29.68°N, 89.95°W
Report Text: KNBG 231955Z 05009KT 10SM SCT250 23/07 A3004 RMK AO2 SLP172 T02330067 $
Loading
Personal Weather Stations






























Interactive Weather Map
Tropical Storm Tracking
New forecast layout! Learn more

10-Day Weather Forecast

Advertisements
Track Severe Weather on mobile